Terminal Aerodrome Forecast
Issued by NWS Charleston, WV

Current Version | Previous Version | Text Only | Print | Product List | Glossary Off
Versions: 1 2 3 4 5 6 7 8 9 10 11 12 13 14 15 16 17 18 19 20 21 22 23 24 25

000
FTUS41 KRLX 031941 AAA
TAFPKB
TAF AMD
KPKB 031941Z 0320/0418 26004KT P6SM OVC035
     FM032200 VRB03KT P6SM OVC030
     FM040500 00000KT P6SM OVC035=

USA.gov is the U.S. government's official web portal to all federal, state and local government web resources and services.